sensor_id;sensor_type;location;lat;lon;timestamp;pressure;altitude;pressure_sealevel;temperature;humidity
64019;BME280;66942;52.138;5.216;2023-02-15T00:00:08;102982.0;;;3.43;72.49
64019;BME280;66942;52.138;5.216;2023-02-15T00:01:44;102984.99999999999;;;3.5;72.41
64019;BME280;66942;52.138;5.216;2023-02-15T00:03:22;102984.99999999999;;;3.53;72.09
64019;BME280;66942;52.138;5.216;2023-02-15T00:06:35;102988.00000000001;;;3.68;71.48
64019;BME280;66942;52.138;5.216;2023-02-15T00:08:11;102988.00000000001;;;3.55;71.64
64019;BME280;66942;52.138;5.216;2023-02-15T00:09:48;102991.00000000001;;;3.39;72.27
64019;BME280;66942;52.138;5.216;2023-02-15T00:13:17;102989.00000000001;;;3.47;72.08
64019;BME280;66942;52.138;5.216;2023-02-15T00:14:53;102989.00000000001;;;3.44;71.72
64019;BME280;66942;52.138;5.216;2023-02-15T00:16:31;102990.00000000001;;;3.29;72.39
64019;BME280;66942;52.138;5.216;2023-02-15T00:18:08;102989.00000000001;;;3.13;72.56
64019;BME280;66942;52.138;5.216;2023-02-15T00:21:21;102986.99999999999;;;3.16;72.78
64019;BME280;66942;52.138;5.216;2023-02-15T00:22:58;102982.0;;;3.17;72.66
64019;BME280;66942;52.138;5.216;2023-02-15T00:24:34;102981.0;;;3.02;73.16
64019;BME280;66942;52.138;5.216;2023-02-15T00:27:48;102981.0;;;3.0;72.97
64019;BME280;66942;52.138;5.216;2023-02-15T00:29:25;102980.0;;;3.01;72.92
64019;BME280;66942;52.138;5.216;2023-02-15T00:31:04;102973.0;;;3.11;72.64
64019;BME280;66942;52.138;5.216;2023-02-15T00:32:40;102971.0;;;3.12;72.59
64019;BME280;66942;52.138;5.216;2023-02-15T00:35:56;102970.0;;;3.14;72.52
64019;BME280;66942;52.138;5.216;2023-02-15T00:37:33;102966.00000000001;;;3.09;72.58
64019;BME280;66942;52.138;5.216;2023-02-15T00:39:10;102964.00000000001;;;3.01;72.64
64019;BME280;66942;52.138;5.216;2023-02-15T00:42:28;102965.00000000001;;;2.89;72.99
64019;BME280;66942;52.138;5.216;2023-02-15T00:44:05;102966.00000000001;;;2.91;73.08
64019;BME280;66942;52.138;5.216;2023-02-15T00:45:44;102959.99999999999;;;3.1;72.3
64019;BME280;66942;52.138;5.216;2023-02-15T00:47:21;102958.0;;;2.94;72.74
64019;BME280;66942;52.138;5.216;2023-02-15T00:50:33;102956.0;;;2.96;72.55
64019;BME280;66942;52.138;5.216;2023-02-15T00:52:09;102964.00000000001;;;2.85;72.77
64019;BME280;66942;52.138;5.216;2023-02-15T00:53:45;102958.0;;;2.81;72.92
64019;BME280;66942;52.138;5.216;2023-02-15T00:56:59;102955.0;;;2.86;72.61
64019;BME280;66942;52.138;5.216;2023-02-15T00:58:35;102954.0;;;2.81;72.83
64019;BME280;66942;52.138;5.216;2023-02-15T01:00:13;102955.0;;;2.89;72.58
64019;BME280;66942;52.138;5.216;2023-02-15T01:03:25;102956.0;;;2.85;72.44
64019;BME280;66942;52.138;5.216;2023-02-15T01:05:01;102956.0;;;2.73;72.87
64019;BME280;66942;52.138;5.216;2023-02-15T01:06:38;102952.0;;;2.81;72.53
64019;BME280;66942;52.138;5.216;2023-02-15T01:08:14;102953.0;;;2.76;72.8
64019;BME280;66942;52.138;5.216;2023-02-15T01:11:27;102951.0;;;2.82;72.55
64019;BME280;66942;52.138;5.216;2023-02-15T01:13:03;102955.0;;;2.79;72.49
64019;BME280;66942;52.138;5.216;2023-02-15T01:14:40;102951.0;;;2.65;73.08
64019;BME280;66942;52.138;5.216;2023-02-15T01:17:53;102953.0;;;2.81;72.38
64019;BME280;66942;52.138;5.216;2023-02-15T01:19:30;102950.0;;;2.88;72.02
64019;BME280;66942;52.138;5.216;2023-02-15T01:21:10;102946.0;;;2.93;71.87
64019;BME280;66942;52.138;5.216;2023-02-15T01:24:26;102940.00000000001;;;2.71;72.52
64019;BME280;66942;52.138;5.216;2023-02-15T01:26:03;102939.00000000001;;;2.66;72.7
64019;BME280;66942;52.138;5.216;2023-02-15T01:27:39;102939.00000000001;;;2.91;71.92
64019;BME280;66942;52.138;5.216;2023-02-15T01:29:15;102934.99999999999;;;2.79;72.33
64019;BME280;66942;52.138;5.216;2023-02-15T01:32:28;102932.0;;;2.82;71.91
64019;BME280;66942;52.138;5.216;2023-02-15T01:34:04;102925.0;;;2.65;72.41
64019;BME280;66942;52.138;5.216;2023-02-15T01:35:40;102926.0;;;2.71;72.19
64019;BME280;66942;52.138;5.216;2023-02-15T01:38:52;102920.0;;;2.76;72.11
64019;BME280;66942;52.138;5.216;2023-02-15T01:40:29;102918.0;;;2.59;72.55
64019;BME280;66942;52.138;5.216;2023-02-15T01:42:08;102916.00000000001;;;2.63;72.5
64019;BME280;66942;52.138;5.216;2023-02-15T01:45:27;102917.0;;;2.83;71.78
64019;BME280;66942;52.138;5.216;2023-02-15T01:47:04;102914.00000000001;;;2.77;71.97
64019;BME280;66942;52.138;5.216;2023-02-15T01:48:43;102913.00000000001;;;2.6;72.75
64019;BME280;66942;52.138;5.216;2023-02-15T01:50:27;102908.0;;;2.61;72.63
64019;BME280;66942;52.138;5.216;2023-02-15T01:53:46;102909.99999999999;;;2.73;72.27
64019;BME280;66942;52.138;5.216;2023-02-15T01:55:29;102907.0;;;2.82;72.16
64019;BME280;66942;52.138;5.216;2023-02-15T01:57:11;102909.99999999999;;;2.79;72.06
64019;BME280;66942;52.138;5.216;2023-02-15T01:58:53;102906.0;;;2.84;71.97
64019;BME280;66942;52.138;5.216;2023-02-15T02:00:32;102901.0;;;2.65;72.66
64019;BME280;66942;52.138;5.216;2023-02-15T02:03:57;102903.0;;;2.57;72.95
64019;BME280;66942;52.138;5.216;2023-02-15T02:05:34;102899.0;;;2.56;73.09
64019;BME280;66942;52.138;5.216;2023-02-15T02:07:12;102900.0;;;2.54;72.86
64019;BME280;66942;52.138;5.216;2023-02-15T02:10:28;102897.0;;;2.5;73.05
64019;BME280;66942;52.138;5.216;2023-02-15T02:12:05;102896.0;;;2.52;73.06
64019;BME280;66942;52.138;5.216;2023-02-15T02:13:42;102893.0;;;2.57;72.91
64019;BME280;66942;52.138;5.216;2023-02-15T02:15:23;102892.0;;;2.56;73.02
64019;BME280;66942;52.138;5.216;2023-02-15T02:19:05;102891.00000000001;;;2.63;72.52
64019;BME280;66942;52.138;5.216;2023-02-15T02:21:01;102888.00000000001;;;2.67;72.22
64019;BME280;66942;52.138;5.216;2023-02-15T02:23:21;102883.0;;;2.66;72.19
64019;BME280;66942;52.138;5.216;2023-02-15T02:26:24;102883.99999999999;;;2.57;72.8
64019;BME280;66942;52.138;5.216;2023-02-15T02:29:35;102878.0;;;2.5;72.89
64019;BME280;66942;52.138;5.216;2023-02-15T02:33:01;102870.0;;;2.76;71.87
64019;BME280;66942;52.138;5.216;2023-02-15T02:35:45;102866.00000000001;;;2.6;72.53
64019;BME280;66942;52.138;5.216;2023-02-15T02:37:30;102861.99999999999;;;2.52;72.78
64019;BME280;66942;52.138;5.216;2023-02-15T02:39:22;102867.0;;;2.66;72.3
64019;BME280;66942;52.138;5.216;2023-02-15T02:41:12;102864.00000000001;;;2.63;72.53
64019;BME280;66942;52.138;5.216;2023-02-15T02:42:56;102866.00000000001;;;2.68;72.05
64019;BME280;66942;52.138;5.216;2023-02-15T02:44:42;102867.0;;;2.54;72.83
64019;BME280;66942;52.138;5.216;2023-02-15T02:48:04;102867.0;;;2.61;72.62
64019;BME280;66942;52.138;5.216;2023-02-15T02:49:43;102861.99999999999;;;2.65;72.69
64019;BME280;66942;52.138;5.216;2023-02-15T02:51:21;102854.0;;;2.87;71.58
64019;BME280;66942;52.138;5.216;2023-02-15T02:52:59;102858.99999999999;;;2.78;71.94
64019;BME280;66942;52.138;5.216;2023-02-15T02:56:18;102854.0;;;2.64;72.27
64019;BME280;66942;52.138;5.216;2023-02-15T02:58:00;102853.0;;;2.68;72.19
64019;BME280;66942;52.138;5.216;2023-02-15T02:59:43;102848.0;;;3.07;71.24
64019;BME280;66942;52.138;5.216;2023-02-15T03:01:27;102844.0;;;3.04;71.13
64019;BME280;66942;52.138;5.216;2023-02-15T03:05:02;102845.0;;;2.86;71.22
64019;BME280;66942;52.138;5.216;2023-02-15T03:06:47;102842.0;;;2.54;72.31
64019;BME280;66942;52.138;5.216;2023-02-15T03:08:32;102840.00000000001;;;2.76;71.95
64019;BME280;66942;52.138;5.216;2023-02-15T03:10:13;102833.0;;;2.89;71.3
64019;BME280;66942;52.138;5.216;2023-02-15T03:11:50;102831.0;;;2.75;71.69
64019;BME280;66942;52.138;5.216;2023-02-15T03:15:06;102827.0;;;2.87;71.33
64019;BME280;66942;52.138;5.216;2023-02-15T03:16:47;102824.0;;;2.74;71.69
64019;BME280;66942;52.138;5.216;2023-02-15T03:18:30;102832.0;;;2.71;72.08
64019;BME280;66942;52.138;5.216;2023-02-15T03:20:17;102829.0;;;2.65;72.09
64019;BME280;66942;52.138;5.216;2023-02-15T03:23:46;102826.0;;;2.48;72.64
64019;BME280;66942;52.138;5.216;2023-02-15T03:25:25;102823.0;;;2.69;72.19
64019;BME280;66942;52.138;5.216;2023-02-15T03:27:06;102819.0;;;2.88;71.25
64019;BME280;66942;52.138;5.216;2023-02-15T03:28:49;102819.0;;;2.79;71.56
64019;BME280;66942;52.138;5.216;2023-02-15T03:32:07;102821.0;;;2.62;72.25
64019;BME280;66942;52.138;5.216;2023-02-15T03:33:50;102817.0;;;2.48;72.67
64019;BME280;66942;52.138;5.216;2023-02-15T03:35:33;102811.99999999999;;;2.54;72.45
64019;BME280;66942;52.138;5.216;2023-02-15T03:37:26;102808.99999999999;;;2.62;72.3
64019;BME280;66942;52.138;5.216;2023-02-15T03:39:10;102808.99999999999;;;2.65;72.06
64019;BME280;66942;52.138;5.216;2023-02-15T03:43:08;102813.00000000001;;;2.54;72.75
64019;BME280;66942;52.138;5.216;2023-02-15T03:46:40;102811.99999999999;;;2.68;72.02
64019;BME280;66942;52.138;5.216;2023-02-15T03:48:18;102815.00000000001;;;2.67;71.99
64019;BME280;66942;52.138;5.216;2023-02-15T03:50:00;102816.00000000001;;;2.5;72.61
64019;BME280;66942;52.138;5.216;2023-02-15T03:51:43;102811.99999999999;;;2.92;71.41
64019;BME280;66942;52.138;5.216;2023-02-15T03:55:01;102803.0;;;2.98;70.73
64019;BME280;66942;52.138;5.216;2023-02-15T03:56:40;102802.0;;;3.19;70.44
64019;BME280;66942;52.138;5.216;2023-02-15T04:02:31;102799.0;;;2.66;71.97
64019;BME280;66942;52.138;5.216;2023-02-15T04:04:17;102797.0;;;2.84;71.44
64019;BME280;66942;52.138;5.216;2023-02-15T04:07:31;102795.0;;;3.09;70.8
64019;BME280;66942;52.138;5.216;2023-02-15T04:10:56;102791.00000000001;;;2.93;71.17
64019;BME280;66942;52.138;5.216;2023-02-15T04:12:42;102792.0;;;2.67;71.97
64019;BME280;66942;52.138;5.216;2023-02-15T04:17:43;102794.0;;;2.58;72.14
64019;BME280;66942;52.138;5.216;2023-02-15T04:25:19;102792.0;;;2.7;71.77
64019;BME280;66942;52.138;5.216;2023-02-15T04:26:56;102796.0;;;3.11;70.69
64019;BME280;66942;52.138;5.216;2023-02-15T04:28:33;102788.00000000001;;;3.22;70.17
64019;BME280;66942;52.138;5.216;2023-02-15T04:30:11;102789.00000000001;;;3.38;69.72
64019;BME280;66942;52.138;5.216;2023-02-15T04:31:48;102783.0;;;3.5;69.41
64019;BME280;66942;52.138;5.216;2023-02-15T04:33:26;102779.0;;;3.5;69.36
64019;BME280;66942;52.138;5.216;2023-02-15T04:36:39;102783.99999999999;;;3.56;69.03
64019;BME280;66942;52.138;5.216;2023-02-15T04:38:16;102780.0;;;3.26;70.05
64019;BME280;66942;52.138;5.216;2023-02-15T04:39:52;102773.0;;;3.11;70.58
64019;BME280;66942;52.138;5.216;2023-02-15T04:43:05;102766.00000000001;;;3.46;69.55
64019;BME280;66942;52.138;5.216;2023-02-15T04:44:42;102764.00000000001;;;3.61;69.16
64019;BME280;66942;52.138;5.216;2023-02-15T04:46:19;102765.00000000001;;;3.5;69.48
64019;BME280;66942;52.138;5.216;2023-02-15T04:47:55;102767.0;;;3.4;69.48
64019;BME280;66942;52.138;5.216;2023-02-15T04:51:07;102763.00000000001;;;3.37;69.87
64019;BME280;66942;52.138;5.216;2023-02-15T04:52:43;102763.00000000001;;;3.27;70.08
64019;BME280;66942;52.138;5.216;2023-02-15T04:54:20;102758.99999999999;;;3.4;69.67
64019;BME280;66942;52.138;5.216;2023-02-15T04:57:33;102758.99999999999;;;3.39;69.66
64019;BME280;66942;52.138;5.216;2023-02-15T04:59:10;102759.99999999999;;;3.55;69.45
64019;BME280;66942;52.138;5.216;2023-02-15T05:00:46;102757.0;;;3.63;69.11
64019;BME280;66942;52.138;5.216;2023-02-15T05:03:58;102761.99999999999;;;3.48;69.37
64019;BME280;66942;52.138;5.216;2023-02-15T05:05:34;102764.00000000001;;;3.67;69.05
64019;BME280;66942;52.138;5.216;2023-02-15T05:07:10;102758.0;;;3.56;69.0
64019;BME280;66942;52.138;5.216;2023-02-15T05:08:46;102758.99999999999;;;3.29;69.97
64019;BME280;66942;52.138;5.216;2023-02-15T05:11:59;102759.99999999999;;;3.08;70.86
64019;BME280;66942;52.138;5.216;2023-02-15T05:13:35;102757.0;;;3.06;71.12
64019;BME280;66942;52.138;5.216;2023-02-15T05:15:11;102758.0;;;3.23;70.55
64019;BME280;66942;52.138;5.216;2023-02-15T05:18:23;102755.0;;;2.98;71.16
64019;BME280;66942;52.138;5.216;2023-02-15T05:19:59;102757.0;;;3.2;70.49
64019;BME280;66942;52.138;5.216;2023-02-15T05:21:36;102754.0;;;2.92;71.44
64019;BME280;66942;52.138;5.216;2023-02-15T05:28:58;102757.0;;;2.65;72.3
64019;BME280;66942;52.138;5.216;2023-02-15T05:30:34;102756.0;;;2.61;72.58
64019;BME280;66942;52.138;5.216;2023-02-15T05:32:12;102756.0;;;2.7;72.2
64019;BME280;66942;52.138;5.216;2023-02-15T05:35:26;102752.0;;;3.1;70.88
64019;BME280;66942;52.138;5.216;2023-02-15T05:37:02;102750.0;;;3.06;70.77
64019;BME280;66942;52.138;5.216;2023-02-15T05:38:39;102749.0;;;3.17;70.49
64019;BME280;66942;52.138;5.216;2023-02-15T05:40:15;102748.0;;;3.02;71.06
64019;BME280;66942;52.138;5.216;2023-02-15T05:43:27;102751.0;;;3.2;70.63
64019;BME280;66942;52.138;5.216;2023-02-15T05:45:06;102747.0;;;3.26;70.3
64019;BME280;66942;52.138;5.216;2023-02-15T05:46:43;102752.0;;;3.28;70.3
64019;BME280;66942;52.138;5.216;2023-02-15T05:49:58;102750.0;;;3.24;70.23
64019;BME280;66942;52.138;5.216;2023-02-15T05:51:34;102749.0;;;3.52;69.61
64019;BME280;66942;52.138;5.216;2023-02-15T05:53:10;102751.0;;;3.32;70.05
64019;BME280;66942;52.138;5.216;2023-02-15T05:56:23;102749.0;;;3.31;70.02
64019;BME280;66942;52.138;5.216;2023-02-15T05:57:59;102755.0;;;3.02;71.11
64019;BME280;66942;52.138;5.216;2023-02-15T05:59:35;102756.0;;;2.99;71.19
64019;BME280;66942;52.138;5.216;2023-02-15T06:01:13;102755.0;;;3.04;71.27
64019;BME280;66942;52.138;5.216;2023-02-15T06:04:26;102748.0;;;3.43;70.02
64019;BME280;66942;52.138;5.216;2023-02-15T06:06:04;102747.0;;;2.96;70.98
64019;BME280;66942;52.138;5.216;2023-02-15T06:07:42;102746.0;;;3.05;71.14
64019;BME280;66942;52.138;5.216;2023-02-15T06:10:56;102742.0;;;3.33;70.41
64019;BME280;66942;52.138;5.216;2023-02-15T06:12:32;102740.00000000001;;;3.38;70.08
64019;BME280;66942;52.138;5.216;2023-02-15T06:14:08;102734.99999999999;;;3.54;69.48
64019;BME280;66942;52.138;5.216;2023-02-15T06:15:44;102733.99999999999;;;3.36;70.14
64019;BME280;66942;52.138;5.216;2023-02-15T06:18:59;102734.99999999999;;;3.33;69.91
64019;BME280;66942;52.138;5.216;2023-02-15T06:20:36;102732.0;;;3.17;70.59
64019;BME280;66942;52.138;5.216;2023-02-15T06:22:14;102733.0;;;3.34;70.22
64019;BME280;66942;52.138;5.216;2023-02-15T06:25:26;102728.0;;;2.92;71.55
64019;BME280;66942;52.138;5.216;2023-02-15T06:27:02;102731.0;;;2.87;71.8
64019;BME280;66942;52.138;5.216;2023-02-15T06:28:39;102732.0;;;3.11;70.75
64019;BME280;66942;52.138;5.216;2023-02-15T06:31:51;102739.00000000001;;;3.01;70.98
64019;BME280;66942;52.138;5.216;2023-02-15T06:33:27;102742.0;;;2.81;71.99
64019;BME280;66942;52.138;5.216;2023-02-15T06:35:03;102738.00000000001;;;2.86;71.66
64019;BME280;66942;52.138;5.216;2023-02-15T06:36:40;102736.99999999999;;;3.04;71.27
64019;BME280;66942;52.138;5.216;2023-02-15T06:39:53;102736.99999999999;;;3.13;70.74
64019;BME280;66942;52.138;5.216;2023-02-15T06:41:30;102739.00000000001;;;3.16;70.81
64019;BME280;66942;52.138;5.216;2023-02-15T06:43:06;102742.0;;;3.23;70.72
64019;BME280;66942;52.138;5.216;2023-02-15T06:46:18;102740.00000000001;;;3.1;71.38
64019;BME280;66942;52.138;5.216;2023-02-15T06:47:54;102741.00000000001;;;3.02;71.91
64019;BME280;66942;52.138;5.216;2023-02-15T06:49:30;102741.00000000001;;;2.92;71.99
64019;BME280;66942;52.138;5.216;2023-02-15T06:52:42;102733.99999999999;;;2.9;72.09
64019;BME280;66942;52.138;5.216;2023-02-15T06:54:19;102733.0;;;2.91;72.16
64019;BME280;66942;52.138;5.216;2023-02-15T06:56:00;102733.99999999999;;;3.08;71.53
64019;BME280;66942;52.138;5.216;2023-02-15T06:57:37;102733.0;;;2.93;72.14
64019;BME280;66942;52.138;5.216;2023-02-15T07:00:51;102732.0;;;3.12;71.75
64019;BME280;66942;52.138;5.216;2023-02-15T07:02:27;102738.00000000001;;;3.06;71.94
64019;BME280;66942;52.138;5.216;2023-02-15T07:04:04;102733.99999999999;;;3.1;71.69
64019;BME280;66942;52.138;5.216;2023-02-15T07:07:16;102729.0;;;3.11;71.91
64019;BME280;66942;52.138;5.216;2023-02-15T07:08:52;102730.0;;;2.97;72.41
64019;BME280;66942;52.138;5.216;2023-02-15T07:10:29;102732.0;;;3.24;71.67
64019;BME280;66942;52.138;5.216;2023-02-15T07:14:45;102733.99999999999;;;3.51;70.92
64019;BME280;66942;52.138;5.216;2023-02-15T07:17:58;102733.0;;;3.63;70.66
64019;BME280;66942;52.138;5.216;2023-02-15T07:19:34;102731.0;;;3.63;70.69
64019;BME280;66942;52.138;5.216;2023-02-15T07:21:10;102731.0;;;3.66;70.78
64019;BME280;66942;52.138;5.216;2023-02-15T07:22:46;102730.0;;;3.75;70.36
64019;BME280;66942;52.138;5.216;2023-02-15T07:26:00;102727.0;;;3.49;71.5
64019;BME280;66942;52.138;5.216;2023-02-15T07:27:36;102729.0;;;3.62;71.27
64019;BME280;66942;52.138;5.216;2023-02-15T07:29:13;102721.0;;;3.8;71.11
64019;BME280;66942;52.138;5.216;2023-02-15T07:32:28;102717.0;;;3.84;71.08
64019;BME280;66942;52.138;5.216;2023-02-15T07:34:05;102717.0;;;4.07;70.61
64019;BME280;66942;52.138;5.216;2023-02-15T07:35:46;102717.0;;;4.05;70.92
64019;BME280;66942;52.138;5.216;2023-02-15T07:37:24;102719.0;;;3.99;71.23
64019;BME280;66942;52.138;5.216;2023-02-15T07:40:36;102713.00000000001;;;4.0;71.38
64019;BME280;66942;52.138;5.216;2023-02-15T07:42:13;102703.0;;;4.14;71.11
64019;BME280;66942;52.138;5.216;2023-02-15T07:43:49;102704.0;;;4.17;71.19
64019;BME280;66942;52.138;5.216;2023-02-15T07:47:01;102698.0;;;4.32;70.91
64019;BME280;66942;52.138;5.216;2023-02-15T07:48:39;102694.0;;;4.26;71.44
64019;BME280;66942;52.138;5.216;2023-02-15T07:50:16;102692.0;;;4.24;71.7
64019;BME280;66942;52.138;5.216;2023-02-15T07:53:29;102694.0;;;4.26;71.41
64019;BME280;66942;52.138;5.216;2023-02-15T07:55:06;102693.0;;;4.03;72.27
64019;BME280;66942;52.138;5.216;2023-02-15T07:56:43;102698.0;;;4.09;73.13
64019;BME280;66942;52.138;5.216;2023-02-15T07:58:19;102694.0;;;4.2;72.69
64019;BME280;66942;52.138;5.216;2023-02-15T08:01:34;102692.0;;;4.3;72.7
64019;BME280;66942;52.138;5.216;2023-02-15T08:03:15;102689.00000000001;;;4.66;72.06
64019;BME280;66942;52.138;5.216;2023-02-15T08:04:51;102683.99999999999;;;4.87;71.83
64019;BME280;66942;52.138;5.216;2023-02-15T08:08:06;102683.0;;;4.91;72.03
64019;BME280;66942;52.138;5.216;2023-02-15T08:09:43;102691.00000000001;;;4.84;71.83
64019;BME280;66942;52.138;5.216;2023-02-15T08:11:31;102683.0;;;4.92;72.37
64019;BME280;66942;52.138;5.216;2023-02-15T08:13:07;102679.0;;;5.25;71.72
64019;BME280;66942;52.138;5.216;2023-02-15T08:16:22;102675.0;;;5.29;71.14
64019;BME280;66942;52.138;5.216;2023-02-15T08:18:00;102672.0;;;5.46;71.61
64019;BME280;66942;52.138;5.216;2023-02-15T08:19:36;102673.0;;;5.67;71.67
64019;BME280;66942;52.138;5.216;2023-02-15T08:22:49;102677.0;;;5.81;71.45
64019;BME280;66942;52.138;5.216;2023-02-15T08:24:27;102677.0;;;5.89;71.94
64019;BME280;66942;52.138;5.216;2023-02-15T08:26:05;102673.0;;;6.15;70.27
64019;BME280;66942;52.138;5.216;2023-02-15T08:27:41;102672.0;;;6.41;71.47
64019;BME280;66942;52.138;5.216;2023-02-15T08:31:04;102672.0;;;6.69;70.33
64019;BME280;66942;52.138;5.216;2023-02-15T08:32:40;102673.0;;;6.98;69.91
64019;BME280;66942;52.138;5.216;2023-02-15T08:34:18;102669.0;;;7.11;67.94
64019;BME280;66942;52.138;5.216;2023-02-15T08:35:55;102668.0;;;7.34;67.72
64019;BME280;66942;52.138;5.216;2023-02-15T08:39:08;102668.0;;;7.36;67.13
64019;BME280;66942;52.138;5.216;2023-02-15T08:40:44;102667.0;;;7.35;67.47
64019;BME280;66942;52.138;5.216;2023-02-15T08:42:21;102659.99999999999;;;7.59;66.72
64019;BME280;66942;52.138;5.216;2023-02-15T08:45:36;102658.99999999999;;;7.31;67.11
64019;BME280;66942;52.138;5.216;2023-02-15T08:47:13;102661.99999999999;;;7.57;67.08
64019;BME280;66942;52.138;5.216;2023-02-15T08:48:49;102659.99999999999;;;7.62;67.13
64019;BME280;66942;52.138;5.216;2023-02-15T08:52:02;102656.0;;;7.5;67.69
64019;BME280;66942;52.138;5.216;2023-02-15T08:53:39;102653.0;;;7.9;66.75
64019;BME280;66942;52.138;5.216;2023-02-15T08:55:16;102653.0;;;8.05;66.3
64019;BME280;66942;52.138;5.216;2023-02-15T08:56:52;102653.0;;;8.06;66.44
64019;BME280;66942;52.138;5.216;2023-02-15T09:00:07;102658.99999999999;;;7.84;67.1
64019;BME280;66942;52.138;5.216;2023-02-15T09:01:44;102652.0;;;8.09;66.44
64019;BME280;66942;52.138;5.216;2023-02-15T09:03:20;102651.0;;;8.42;65.66
64019;BME280;66942;52.138;5.216;2023-02-15T09:06:32;102649.0;;;8.18;66.3
64019;BME280;66942;52.138;5.216;2023-02-15T09:08:09;102650.0;;;8.32;65.81
64019;BME280;66942;52.138;5.216;2023-02-15T09:09:45;102649.0;;;8.41;65.36
64019;BME280;66942;52.138;5.216;2023-02-15T09:13:02;102648.0;;;8.24;65.58
64019;BME280;66942;52.138;5.216;2023-02-15T09:14:38;102646.0;;;8.3;65.41
64019;BME280;66942;52.138;5.216;2023-02-15T09:16:16;102642.0;;;8.42;65.14
64019;BME280;66942;52.138;5.216;2023-02-15T09:17:53;102644.0;;;8.49;65.52
64019;BME280;66942;52.138;5.216;2023-02-15T09:21:08;102634.99999999999;;;8.42;65.44
64019;BME280;66942;52.138;5.216;2023-02-15T09:22:44;102632.0;;;8.51;64.77
64019;BME280;66942;52.138;5.216;2023-02-15T09:24:22;102631.0;;;8.48;64.05
64019;BME280;66942;52.138;5.216;2023-02-15T09:27:39;102633.0;;;8.52;66.08
64019;BME280;66942;52.138;5.216;2023-02-15T09:29:16;102629.0;;;8.77;66.49
64019;BME280;66942;52.138;5.216;2023-02-15T09:30:53;102628.0;;;8.81;65.16
64019;BME280;66942;52.138;5.216;2023-02-15T09:32:29;102624.0;;;9.01;64.41
64019;BME280;66942;52.138;5.216;2023-02-15T09:35:42;102627.0;;;9.07;64.19
64019;BME280;66942;52.138;5.216;2023-02-15T09:37:18;102627.0;;;9.07;63.2
64019;BME280;66942;52.138;5.216;2023-02-15T09:38:56;102632.0;;;9.4;62.12
64019;BME280;66942;52.138;5.216;2023-02-15T09:43:05;102632.0;;;9.13;62.17
64019;BME280;66942;52.138;5.216;2023-02-15T09:45:13;102638.00000000001;;;9.47;63.36
64019;BME280;66942;52.138;5.216;2023-02-15T09:47:24;102632.0;;;9.47;61.04
64019;BME280;66942;52.138;5.216;2023-02-15T09:49:21;102624.0;;;9.86;59.92
64019;BME280;66942;52.138;5.216;2023-02-15T09:53:12;102627.0;;;9.98;61.11
64019;BME280;66942;52.138;5.216;2023-02-15T09:55:06;102625.0;;;9.85;63.58
64019;BME280;66942;52.138;5.216;2023-02-15T09:56:53;102629.0;;;9.98;62.34
64019;BME280;66942;52.138;5.216;2023-02-15T09:58:40;102634.99999999999;;;10.28;60.78
64019;BME280;66942;52.138;5.216;2023-02-15T10:00:31;102630.0;;;10.4;60.85
64019;BME280;66942;52.138;5.216;2023-02-15T10:02:24;102636.99999999999;;;10.81;58.52
64019;BME280;66942;52.138;5.216;2023-02-15T10:04:22;102642.0;;;10.95;58.91
64019;BME280;66942;52.138;5.216;2023-02-15T10:08:45;102636.99999999999;;;10.89;59.42
64019;BME280;66942;52.138;5.216;2023-02-15T10:10:33;102639.00000000001;;;10.95;59.02
64019;BME280;66942;52.138;5.216;2023-02-15T10:12:28;102642.0;;;11.09;57.09
64019;BME280;66942;52.138;5.216;2023-02-15T10:16:17;102634.99999999999;;;10.97;56.62
64019;BME280;66942;52.138;5.216;2023-02-15T10:18:25;102632.0;;;11.1;57.06
64019;BME280;66942;52.138;5.216;2023-02-15T10:20:55;102641.00000000001;;;11.06;56.16
64019;BME280;66942;52.138;5.216;2023-02-15T10:22:44;102643.0;;;11.15;57.0
64019;BME280;66942;52.138;5.216;2023-02-15T10:26:43;102636.99999999999;;;11.07;58.01
64019;BME280;66942;52.138;5.216;2023-02-15T10:28:23;102636.99999999999;;;11.16;57.66
64019;BME280;66942;52.138;5.216;2023-02-15T10:30:09;102641.00000000001;;;11.24;57.13
64019;BME280;66942;52.138;5.216;2023-02-15T10:31:49;102645.0;;;11.31;55.85
64019;BME280;66942;52.138;5.216;2023-02-15T10:33:38;102646.0;;;11.19;56.07
64019;BME280;66942;52.138;5.216;2023-02-15T10:35:21;102645.0;;;11.29;55.89
64019;BME280;66942;52.138;5.216;2023-02-15T10:40:01;102647.0;;;11.25;56.46
64019;BME280;66942;52.138;5.216;2023-02-15T10:41:51;102646.0;;;11.25;56.41
64019;BME280;66942;52.138;5.216;2023-02-15T10:43:42;102644.0;;;11.49;56.27
64019;BME280;66942;52.138;5.216;2023-02-15T10:47:22;102644.0;;;11.42;56.55
64019;BME280;66942;52.138;5.216;2023-02-15T10:49:36;102642.0;;;11.5;57.81
64019;BME280;66942;52.138;5.216;2023-02-15T10:51:52;102643.0;;;11.57;56.83
64019;BME280;66942;52.138;5.216;2023-02-15T10:53:50;102639.00000000001;;;11.62;55.94
64019;BME280;66942;52.138;5.216;2023-02-15T10:56:04;102636.99999999999;;;11.78;59.11
64019;BME280;66942;52.138;5.216;2023-02-15T10:57:55;102633.0;;;12.02;55.8
64019;BME280;66942;52.138;5.216;2023-02-15T10:59:53;102633.99999999999;;;12.06;54.54
64019;BME280;66942;52.138;5.216;2023-02-15T11:01:44;102627.0;;;12.38;55.5
64019;BME280;66942;52.138;5.216;2023-02-15T11:03:36;102627.0;;;12.4;55.7
64019;BME280;66942;52.138;5.216;2023-02-15T11:05:26;102618.0;;;12.6;54.07
64019;BME280;66942;52.138;5.216;2023-02-15T11:07:15;102615.00000000001;;;12.49;53.94
64019;BME280;66942;52.138;5.216;2023-02-15T11:08:57;102615.00000000001;;;12.63;55.17
64019;BME280;66942;52.138;5.216;2023-02-15T11:12:21;102603.0;;;12.78;53.51
64019;BME280;66942;52.138;5.216;2023-02-15T11:14:05;102600.0;;;12.76;53.89
64019;BME280;66942;52.138;5.216;2023-02-15T11:15:53;102594.0;;;12.7;54.96
64019;BME280;66942;52.138;5.216;2023-02-15T11:17:35;102586.99999999999;;;13.03;52.89